sensor_id;sensor_type;location;lat;lon;timestamp;P1;durP1;ratioP1;P2;durP2;ratioP2
48363;SDS011;34170;54.364;18.582;2023-07-24T00:02:04;9.77;;;6.35;;
48363;SDS011;34170;54.364;18.582;2023-07-24T00:04:32;11.15;;;6.85;;
48363;SDS011;34170;54.364;18.582;2023-07-24T00:07:00;10.45;;;5.75;;
48363;SDS011;34170;54.364;18.582;2023-07-24T00:09:27;9.38;;;5.93;;
48363;SDS011;34170;54.364;18.582;2023-07-24T00:11:56;7.72;;;5.68;;
48363;SDS011;34170;54.364;18.582;2023-07-24T00:14:23;9.70;;;6.15;;
48363;SDS011;34170;54.364;18.582;2023-07-24T00:16:51;7.43;;;5.20;;
48363;SDS011;34170;54.364;18.582;2023-07-24T00:19:18;9.40;;;5.80;;
48363;SDS011;34170;54.364;18.582;2023-07-24T00:21:46;8.95;;;6.07;;
48363;SDS011;34170;54.364;18.582;2023-07-24T00:24:13;10.25;;;6.45;;
48363;SDS011;34170;54.364;18.582;2023-07-24T00:26:41;10.15;;;6.40;;
48363;SDS011;34170;54.364;18.582;2023-07-24T00:29:08;9.52;;;5.65;;
48363;SDS011;34170;54.364;18.582;2023-07-24T00:31:36;12.30;;;6.32;;
48363;SDS011;34170;54.364;18.582;2023-07-24T00:34:03;8.00;;;5.35;;
48363;SDS011;34170;54.364;18.582;2023-07-24T00:36:32;8.07;;;5.90;;
48363;SDS011;34170;54.364;18.582;2023-07-24T00:38:59;9.77;;;6.45;;
48363;SDS011;34170;54.364;18.582;2023-07-24T00:41:30;9.07;;;6.55;;
48363;SDS011;34170;54.364;18.582;2023-07-24T00:43:57;14.02;;;6.97;;
48363;SDS011;34170;54.364;18.582;2023-07-24T00:46:25;9.25;;;6.55;;
48363;SDS011;34170;54.364;18.582;2023-07-24T00:48:52;7.45;;;5.32;;
48363;SDS011;34170;54.364;18.582;2023-07-24T00:51:21;8.30;;;6.22;;
48363;SDS011;34170;54.364;18.582;2023-07-24T00:53:49;8.55;;;6.25;;
48363;SDS011;34170;54.364;18.582;2023-07-24T00:56:17;12.98;;;7.13;;
48363;SDS011;34170;54.364;18.582;2023-07-24T00:58:46;8.75;;;5.88;;
48363;SDS011;34170;54.364;18.582;2023-07-24T01:01:16;8.77;;;6.00;;
48363;SDS011;34170;54.364;18.582;2023-07-24T01:03:44;8.02;;;5.68;;
48363;SDS011;34170;54.364;18.582;2023-07-24T01:06:12;11.65;;;6.75;;
48363;SDS011;34170;54.364;18.582;2023-07-24T01:08:40;9.65;;;6.63;;
48363;SDS011;34170;54.364;18.582;2023-07-24T01:11:22;9.80;;;6.43;;
48363;SDS011;34170;54.364;18.582;2023-07-24T01:14:08;10.55;;;6.50;;
48363;SDS011;34170;54.364;18.582;2023-07-24T01:16:43;9.20;;;6.40;;
48363;SDS011;34170;54.364;18.582;2023-07-24T01:19:27;9.60;;;6.93;;
48363;SDS011;34170;54.364;18.582;2023-07-24T01:27:28;11.02;;;6.63;;
48363;SDS011;34170;54.364;18.582;2023-07-24T01:29:55;10.40;;;6.93;;
48363;SDS011;34170;54.364;18.582;2023-07-24T01:32:23;12.45;;;6.65;;
48363;SDS011;34170;54.364;18.582;2023-07-24T01:34:51;9.90;;;6.55;;
48363;SDS011;34170;54.364;18.582;2023-07-24T01:37:20;10.35;;;6.82;;
48363;SDS011;34170;54.364;18.582;2023-07-24T01:39:49;10.00;;;6.85;;
48363;SDS011;34170;54.364;18.582;2023-07-24T01:42:17;10.45;;;6.80;;
48363;SDS011;34170;54.364;18.582;2023-07-24T01:44:45;10.93;;;6.43;;
48363;SDS011;34170;54.364;18.582;2023-07-24T01:47:19;10.38;;;6.30;;
48363;SDS011;34170;54.364;18.582;2023-07-24T01:49:47;8.88;;;5.53;;
48363;SDS011;34170;54.364;18.582;2023-07-24T01:52:15;10.10;;;6.45;;
48363;SDS011;34170;54.364;18.582;2023-07-24T01:54:43;9.93;;;6.35;;
48363;SDS011;34170;54.364;18.582;2023-07-24T01:57:10;12.88;;;7.50;;
48363;SDS011;34170;54.364;18.582;2023-07-24T01:59:38;13.23;;;7.82;;
48363;SDS011;34170;54.364;18.582;2023-07-24T02:02:05;10.55;;;7.72;;
48363;SDS011;34170;54.364;18.582;2023-07-24T02:04:33;13.65;;;8.48;;
48363;SDS011;34170;54.364;18.582;2023-07-24T02:07:00;12.43;;;8.68;;
48363;SDS011;34170;54.364;18.582;2023-07-24T02:09:27;11.23;;;8.30;;
48363;SDS011;34170;54.364;18.582;2023-07-24T02:11:55;13.60;;;9.60;;
48363;SDS011;34170;54.364;18.582;2023-07-24T02:14:23;14.73;;;10.80;;
48363;SDS011;34170;54.364;18.582;2023-07-24T02:16:51;13.93;;;10.30;;
48363;SDS011;34170;54.364;18.582;2023-07-24T02:19:18;15.63;;;10.65;;
48363;SDS011;34170;54.364;18.582;2023-07-24T02:21:46;16.63;;;11.05;;
48363;SDS011;34170;54.364;18.582;2023-07-24T02:24:13;15.13;;;10.25;;
48363;SDS011;34170;54.364;18.582;2023-07-24T02:26:41;15.07;;;10.52;;
48363;SDS011;34170;54.364;18.582;2023-07-24T02:29:08;14.90;;;10.02;;
48363;SDS011;34170;54.364;18.582;2023-07-24T02:31:36;14.32;;;10.50;;
48363;SDS011;34170;54.364;18.582;2023-07-24T02:34:03;14.30;;;9.60;;
48363;SDS011;34170;54.364;18.582;2023-07-24T02:36:32;14.02;;;8.88;;
48363;SDS011;34170;54.364;18.582;2023-07-24T02:38:59;12.60;;;8.10;;
48363;SDS011;34170;54.364;18.582;2023-07-24T02:41:27;12.23;;;8.25;;
48363;SDS011;34170;54.364;18.582;2023-07-24T02:43:54;22.77;;;8.82;;
48363;SDS011;34170;54.364;18.582;2023-07-24T02:46:22;12.07;;;8.10;;
48363;SDS011;34170;54.364;18.582;2023-07-24T02:48:52;10.13;;;7.00;;
48363;SDS011;34170;54.364;18.582;2023-07-24T02:51:20;10.82;;;7.53;;
48363;SDS011;34170;54.364;18.582;2023-07-24T02:53:48;12.38;;;7.25;;
48363;SDS011;34170;54.364;18.582;2023-07-24T02:56:19;8.70;;;6.40;;
48363;SDS011;34170;54.364;18.582;2023-07-24T02:58:47;10.85;;;7.03;;
48363;SDS011;34170;54.364;18.582;2023-07-24T03:01:15;11.95;;;6.45;;
48363;SDS011;34170;54.364;18.582;2023-07-24T03:03:42;12.05;;;6.88;;
48363;SDS011;34170;54.364;18.582;2023-07-24T03:06:10;7.82;;;6.20;;
48363;SDS011;34170;54.364;18.582;2023-07-24T03:08:37;8.38;;;5.97;;
48363;SDS011;34170;54.364;18.582;2023-07-24T03:11:05;8.45;;;6.40;;
48363;SDS011;34170;54.364;18.582;2023-07-24T03:13:33;8.45;;;6.10;;
48363;SDS011;34170;54.364;18.582;2023-07-24T03:16:01;9.45;;;6.05;;
48363;SDS011;34170;54.364;18.582;2023-07-24T03:18:28;9.68;;;6.18;;
48363;SDS011;34170;54.364;18.582;2023-07-24T03:20:57;9.05;;;6.32;;
48363;SDS011;34170;54.364;18.582;2023-07-24T03:23:26;8.60;;;6.13;;
48363;SDS011;34170;54.364;18.582;2023-07-24T03:25:53;11.38;;;6.15;;
48363;SDS011;34170;54.364;18.582;2023-07-24T03:28:21;9.25;;;6.20;;
48363;SDS011;34170;54.364;18.582;2023-07-24T03:30:49;9.02;;;6.15;;
48363;SDS011;34170;54.364;18.582;2023-07-24T03:33:17;8.43;;;5.63;;
48363;SDS011;34170;54.364;18.582;2023-07-24T03:35:44;9.38;;;6.15;;
48363;SDS011;34170;54.364;18.582;2023-07-24T03:38:12;7.53;;;5.13;;
48363;SDS011;34170;54.364;18.582;2023-07-24T03:40:39;8.20;;;5.28;;
48363;SDS011;34170;54.364;18.582;2023-07-24T03:43:07;9.05;;;5.35;;
48363;SDS011;34170;54.364;18.582;2023-07-24T03:45:34;7.53;;;5.57;;
48363;SDS011;34170;54.364;18.582;2023-07-24T03:48:02;10.18;;;6.18;;
48363;SDS011;34170;54.364;18.582;2023-07-24T03:50:29;8.60;;;5.20;;
48363;SDS011;34170;54.364;18.582;2023-07-24T03:52:57;7.38;;;5.32;;
48363;SDS011;34170;54.364;18.582;2023-07-24T03:55:24;9.93;;;6.10;;
48363;SDS011;34170;54.364;18.582;2023-07-24T03:57:52;7.38;;;5.95;;
48363;SDS011;34170;54.364;18.582;2023-07-24T04:00:19;8.23;;;5.72;;
48363;SDS011;34170;54.364;18.582;2023-07-24T04:02:47;8.65;;;5.57;;
48363;SDS011;34170;54.364;18.582;2023-07-24T04:05:15;8.30;;;5.85;;
48363;SDS011;34170;54.364;18.582;2023-07-24T04:07:42;7.75;;;5.60;;
48363;SDS011;34170;54.364;18.582;2023-07-24T04:10:10;7.65;;;5.25;;
48363;SDS011;34170;54.364;18.582;2023-07-24T04:12:38;7.57;;;4.93;;
48363;SDS011;34170;54.364;18.582;2023-07-24T04:15:05;7.32;;;5.35;;
48363;SDS011;34170;54.364;18.582;2023-07-24T04:17:33;7.30;;;5.10;;
48363;SDS011;34170;54.364;18.582;2023-07-24T04:20:03;8.93;;;5.40;;
48363;SDS011;34170;54.364;18.582;2023-07-24T04:22:30;7.38;;;5.20;;
48363;SDS011;34170;54.364;18.582;2023-07-24T04:24:58;6.72;;;4.63;;
48363;SDS011;34170;54.364;18.582;2023-07-24T04:27:25;6.80;;;5.30;;
48363;SDS011;34170;54.364;18.582;2023-07-24T04:29:53;6.95;;;4.70;;
48363;SDS011;34170;54.364;18.582;2023-07-24T04:32:20;7.57;;;4.80;;
48363;SDS011;34170;54.364;18.582;2023-07-24T04:34:48;7.97;;;4.70;;
48363;SDS011;34170;54.364;18.582;2023-07-24T04:37:15;7.07;;;4.85;;
48363;SDS011;34170;54.364;18.582;2023-07-24T04:39:43;7.95;;;4.50;;
48363;SDS011;34170;54.364;18.582;2023-07-24T04:42:10;6.40;;;4.50;;
48363;SDS011;34170;54.364;18.582;2023-07-24T04:44:38;5.95;;;4.07;;
48363;SDS011;34170;54.364;18.582;2023-07-24T04:47:05;6.30;;;3.85;;
48363;SDS011;34170;54.364;18.582;2023-07-24T04:49:33;6.43;;;4.65;;
48363;SDS011;34170;54.364;18.582;2023-07-24T04:52:00;6.55;;;3.97;;
48363;SDS011;34170;54.364;18.582;2023-07-24T04:54:28;6.28;;;3.55;;
48363;SDS011;34170;54.364;18.582;2023-07-24T04:56:55;5.70;;;4.03;;
48363;SDS011;34170;54.364;18.582;2023-07-24T04:59:23;6.63;;;3.60;;
48363;SDS011;34170;54.364;18.582;2023-07-24T05:01:50;6.28;;;3.72;;
48363;SDS011;34170;54.364;18.582;2023-07-24T05:04:18;6.60;;;3.65;;
48363;SDS011;34170;54.364;18.582;2023-07-24T05:06:46;5.50;;;3.30;;
48363;SDS011;34170;54.364;18.582;2023-07-24T05:09:13;5.63;;;3.28;;
48363;SDS011;34170;54.364;18.582;2023-07-24T05:11:41;5.18;;;3.33;;
48363;SDS011;34170;54.364;18.582;2023-07-24T05:14:12;5.20;;;3.60;;
48363;SDS011;34170;54.364;18.582;2023-07-24T05:16:39;6.22;;;3.83;;
48363;SDS011;34170;54.364;18.582;2023-07-24T05:19:07;5.03;;;3.72;;
48363;SDS011;34170;54.364;18.582;2023-07-24T05:21:34;6.90;;;3.50;;
48363;SDS011;34170;54.364;18.582;2023-07-24T05:24:02;6.28;;;2.92;;
48363;SDS011;34170;54.364;18.582;2023-07-24T05:26:29;6.63;;;3.45;;
48363;SDS011;34170;54.364;18.582;2023-07-24T05:28:57;7.32;;;3.60;;
48363;SDS011;34170;54.364;18.582;2023-07-24T05:31:24;4.93;;;3.38;;
48363;SDS011;34170;54.364;18.582;2023-07-24T05:33:52;6.80;;;3.55;;
48363;SDS011;34170;54.364;18.582;2023-07-24T05:36:19;5.10;;;2.83;;
48363;SDS011;34170;54.364;18.582;2023-07-24T05:38:47;5.72;;;3.17;;
48363;SDS011;34170;54.364;18.582;2023-07-24T05:41:15;4.38;;;3.28;;
48363;SDS011;34170;54.364;18.582;2023-07-24T05:43:42;8.52;;;3.15;;
48363;SDS011;34170;54.364;18.582;2023-07-24T05:46:09;4.05;;;2.72;;
48363;SDS011;34170;54.364;18.582;2023-07-24T05:48:37;4.35;;;3.33;;
48363;SDS011;34170;54.364;18.582;2023-07-24T05:51:05;4.20;;;2.67;;
48363;SDS011;34170;54.364;18.582;2023-07-24T05:53:32;4.85;;;2.92;;
48363;SDS011;34170;54.364;18.582;2023-07-24T05:56:01;4.18;;;3.15;;
48363;SDS011;34170;54.364;18.582;2023-07-24T05:58:29;4.63;;;3.10;;
48363;SDS011;34170;54.364;18.582;2023-07-24T06:00:56;7.13;;;3.33;;
48363;SDS011;34170;54.364;18.582;2023-07-24T06:03:24;3.97;;;2.63;;
48363;SDS011;34170;54.364;18.582;2023-07-24T06:05:53;4.90;;;2.85;;
48363;SDS011;34170;54.364;18.582;2023-07-24T06:08:21;5.72;;;3.10;;
48363;SDS011;34170;54.364;18.582;2023-07-24T06:10:49;3.65;;;3.10;;
48363;SDS011;34170;54.364;18.582;2023-07-24T06:13:18;5.53;;;3.20;;
48363;SDS011;34170;54.364;18.582;2023-07-24T06:15:49;4.05;;;2.88;;
48363;SDS011;34170;54.364;18.582;2023-07-24T06:18:18;6.05;;;2.80;;
48363;SDS011;34170;54.364;18.582;2023-07-24T06:20:45;3.88;;;2.90;;
48363;SDS011;34170;54.364;18.582;2023-07-24T06:23:13;4.47;;;2.53;;
48363;SDS011;34170;54.364;18.582;2023-07-24T06:25:40;7.57;;;2.78;;
48363;SDS011;34170;54.364;18.582;2023-07-24T06:28:07;4.22;;;2.88;;
48363;SDS011;34170;54.364;18.582;2023-07-24T06:30:35;5.03;;;2.90;;
48363;SDS011;34170;54.364;18.582;2023-07-24T06:33:02;5.53;;;2.42;;
48363;SDS011;34170;54.364;18.582;2023-07-24T06:35:30;5.35;;;2.75;;
48363;SDS011;34170;54.364;18.582;2023-07-24T06:37:58;4.72;;;2.25;;
48363;SDS011;34170;54.364;18.582;2023-07-24T06:40:25;3.85;;;2.25;;
48363;SDS011;34170;54.364;18.582;2023-07-24T06:42:52;5.75;;;2.20;;
48363;SDS011;34170;54.364;18.582;2023-07-24T06:45:20;3.67;;;2.33;;
48363;SDS011;34170;54.364;18.582;2023-07-24T06:47:47;4.30;;;2.30;;
48363;SDS011;34170;54.364;18.582;2023-07-24T06:50:15;4.57;;;2.20;;
48363;SDS011;34170;54.364;18.582;2023-07-24T06:52:43;3.75;;;2.10;;
48363;SDS011;34170;54.364;18.582;2023-07-24T06:55:10;2.15;;;1.90;;
48363;SDS011;34170;54.364;18.582;2023-07-24T06:57:37;2.30;;;2.10;;
48363;SDS011;34170;54.364;18.582;2023-07-24T07:00:05;3.20;;;2.40;;
48363;SDS011;34170;54.364;18.582;2023-07-24T07:02:36;3.63;;;1.90;;
48363;SDS011;34170;54.364;18.582;2023-07-24T07:05:03;2.47;;;2.05;;
48363;SDS011;34170;54.364;18.582;2023-07-24T07:07:32;3.95;;;2.30;;
48363;SDS011;34170;54.364;18.582;2023-07-24T07:09:59;3.15;;;2.50;;
48363;SDS011;34170;54.364;18.582;2023-07-24T07:12:26;3.17;;;2.17;;
48363;SDS011;34170;54.364;18.582;2023-07-24T07:14:54;4.30;;;2.88;;
48363;SDS011;34170;54.364;18.582;2023-07-24T07:17:21;3.63;;;2.47;;
48363;SDS011;34170;54.364;18.582;2023-07-24T07:19:49;6.45;;;2.67;;
48363;SDS011;34170;54.364;18.582;2023-07-24T07:22:16;2.60;;;2.13;;
48363;SDS011;34170;54.364;18.582;2023-07-24T07:24:44;4.38;;;2.63;;
48363;SDS011;34170;54.364;18.582;2023-07-24T07:27:13;4.18;;;2.65;;
48363;SDS011;34170;54.364;18.582;2023-07-24T07:29:44;3.97;;;1.97;;
48363;SDS011;34170;54.364;18.582;2023-07-24T07:32:11;4.57;;;2.28;;
48363;SDS011;34170;54.364;18.582;2023-07-24T07:34:39;2.88;;;1.92;;
48363;SDS011;34170;54.364;18.582;2023-07-24T07:37:06;1.75;;;1.52;;
48363;SDS011;34170;54.364;18.582;2023-07-24T07:39:33;3.55;;;2.25;;
48363;SDS011;34170;54.364;18.582;2023-07-24T07:42:01;3.55;;;1.85;;
48363;SDS011;34170;54.364;18.582;2023-07-24T07:44:43;2.95;;;2.00;;
48363;SDS011;34170;54.364;18.582;2023-07-24T07:47:11;3.55;;;2.00;;
48363;SDS011;34170;54.364;18.582;2023-07-24T07:49:39;4.25;;;2.35;;
48363;SDS011;34170;54.364;18.582;2023-07-24T07:52:07;8.63;;;2.65;;
48363;SDS011;34170;54.364;18.582;2023-07-24T07:54:34;6.07;;;2.40;;
48363;SDS011;34170;54.364;18.582;2023-07-24T07:57:03;4.03;;;2.35;;
48363;SDS011;34170;54.364;18.582;2023-07-24T07:59:31;4.72;;;2.10;;
48363;SDS011;34170;54.364;18.582;2023-07-24T08:01:59;3.42;;;1.80;;
48363;SDS011;34170;54.364;18.582;2023-07-24T08:04:26;4.05;;;1.92;;
48363;SDS011;34170;54.364;18.582;2023-07-24T08:06:54;2.55;;;1.90;;
48363;SDS011;34170;54.364;18.582;2023-07-24T08:09:21;3.65;;;1.88;;
48363;SDS011;34170;54.364;18.582;2023-07-24T08:11:51;4.50;;;2.10;;
48363;SDS011;34170;54.364;18.582;2023-07-24T08:14:18;2.90;;;2.42;;
48363;SDS011;34170;54.364;18.582;2023-07-24T08:16:49;4.25;;;1.75;;
48363;SDS011;34170;54.364;18.582;2023-07-24T08:19:17;7.13;;;2.65;;
48363;SDS011;34170;54.364;18.582;2023-07-24T08:21:46;4.18;;;2.40;;
48363;SDS011;34170;54.364;18.582;2023-07-24T08:24:13;4.22;;;2.15;;
48363;SDS011;34170;54.364;18.582;2023-07-24T08:26:41;4.95;;;1.95;;
48363;SDS011;34170;54.364;18.582;2023-07-24T08:29:08;5.35;;;2.33;;
48363;SDS011;34170;54.364;18.582;2023-07-24T08:31:36;4.57;;;2.45;;
48363;SDS011;34170;54.364;18.582;2023-07-24T08:34:04;2.88;;;2.20;;
48363;SDS011;34170;54.364;18.582;2023-07-24T08:36:32;4.00;;;2.40;;
48363;SDS011;34170;54.364;18.582;2023-07-24T08:38:59;3.40;;;2.50;;
48363;SDS011;34170;54.364;18.582;2023-07-24T08:41:26;8.13;;;2.30;;
48363;SDS011;34170;54.364;18.582;2023-07-24T08:43:54;5.40;;;2.80;;
48363;SDS011;34170;54.364;18.582;2023-07-24T08:46:22;3.55;;;2.40;;
48363;SDS011;34170;54.364;18.582;2023-07-24T08:48:49;4.38;;;2.53;;
48363;SDS011;34170;54.364;18.582;2023-07-24T08:51:17;5.13;;;2.55;;
48363;SDS011;34170;54.364;18.582;2023-07-24T08:53:51;2.63;;;2.00;;
48363;SDS011;34170;54.364;18.582;2023-07-24T08:56:20;2.45;;;2.10;;
48363;SDS011;34170;54.364;18.582;2023-07-24T08:58:47;2.38;;;1.98;;
48363;SDS011;34170;54.364;18.582;2023-07-24T09:01:15;3.17;;;2.13;;
48363;SDS011;34170;54.364;18.582;2023-07-24T09:03:42;2.80;;;2.13;;
48363;SDS011;34170;54.364;18.582;2023-07-24T09:06:10;2.65;;;2.20;;
48363;SDS011;34170;54.364;18.582;2023-07-24T09:08:38;4.63;;;2.33;;
48363;SDS011;34170;54.364;18.582;2023-07-24T09:11:08;4.10;;;1.83;;
48363;SDS011;34170;54.364;18.582;2023-07-24T09:13:37;2.72;;;2.20;;
48363;SDS011;34170;54.364;18.582;2023-07-24T09:16:09;3.17;;;2.13;;
48363;SDS011;34170;54.364;18.582;2023-07-24T09:18:47;4.72;;;2.00;;
48363;SDS011;34170;54.364;18.582;2023-07-24T09:21:35;2.25;;;1.67;;
48363;SDS011;34170;54.364;18.582;2023-07-24T09:24:09;2.50;;;1.80;;
48363;SDS011;34170;54.364;18.582;2023-07-24T09:26:48;2.60;;;1.77;;
48363;SDS011;34170;54.364;18.582;2023-07-24T09:29:30;2.67;;;2.00;;
48363;SDS011;34170;54.364;18.582;2023-07-24T09:31:59;7.50;;;1.80;;
48363;SDS011;34170;54.364;18.582;2023-07-24T09:34:26;5.03;;;2.08;;
48363;SDS011;34170;54.364;18.582;2023-07-24T09:36:54;2.90;;;1.80;;
48363;SDS011;34170;54.364;18.582;2023-07-24T09:39:25;3.55;;;2.17;;
48363;SDS011;34170;54.364;18.582;2023-07-24T09:42:05;4.55;;;2.28;;
48363;SDS011;34170;54.364;18.582;2023-07-24T09:44:33;4.15;;;2.20;;
48363;SDS011;34170;54.364;18.582;2023-07-24T09:47:01;3.10;;;2.05;;
48363;SDS011;34170;54.364;18.582;2023-07-24T09:49:48;4.13;;;2.28;;
48363;SDS011;34170;54.364;18.582;2023-07-24T09:52:19;5.13;;;2.35;;
48363;SDS011;34170;54.364;18.582;2023-07-24T09:57:20;6.32;;;2.55;;
48363;SDS011;34170;54.364;18.582;2023-07-24T09:59:49;3.28;;;2.00;;
48363;SDS011;34170;54.364;18.582;2023-07-24T10:02:18;3.03;;;2.00;;
48363;SDS011;34170;54.364;18.582;2023-07-24T10:04:46;4.80;;;2.45;;
48363;SDS011;34170;54.364;18.582;2023-07-24T10:07:15;4.15;;;2.50;;
48363;SDS011;34170;54.364;18.582;2023-07-24T10:09:43;5.45;;;2.75;;
48363;SDS011;34170;54.364;18.582;2023-07-24T10:12:11;3.80;;;1.95;;
48363;SDS011;34170;54.364;18.582;2023-07-24T10:14:38;4.03;;;2.85;;
48363;SDS011;34170;54.364;18.582;2023-07-24T10:17:06;5.20;;;2.25;;
48363;SDS011;34170;54.364;18.582;2023-07-24T10:19:43;3.83;;;2.40;;
48363;SDS011;34170;54.364;18.582;2023-07-24T10:22:20;4.60;;;2.13;;
48363;SDS011;34170;54.364;18.582;2023-07-24T10:24:50;5.03;;;2.38;;
48363;SDS011;34170;54.364;18.582;2023-07-24T10:27:22;5.13;;;2.67;;
48363;SDS011;34170;54.364;18.582;2023-07-24T10:30:00;3.45;;;2.10;;
48363;SDS011;34170;54.364;18.582;2023-07-24T10:32:47;4.03;;;2.20;;
48363;SDS011;34170;54.364;18.582;2023-07-24T10:35:22;5.97;;;1.92;;
48363;SDS011;34170;54.364;18.582;2023-07-24T10:37:58;3.83;;;1.80;;
48363;SDS011;34170;54.364;18.582;2023-07-24T10:40:27;5.18;;;2.70;;
48363;SDS011;34170;54.364;18.582;2023-07-24T10:43:04;5.30;;;2.70;;
48363;SDS011;34170;54.364;18.582;2023-07-24T10:45:47;5.80;;;2.38;;
48363;SDS011;34170;54.364;18.582;2023-07-24T10:48:16;6.30;;;2.30;;
48363;SDS011;34170;54.364;18.582;2023-07-24T10:50:45;3.13;;;1.77;;
48363;SDS011;34170;54.364;18.582;2023-07-24T10:53:20;4.85;;;2.45;;
48363;SDS011;34170;54.364;18.582;2023-07-24T10:55:48;3.92;;;2.00;;
48363;SDS011;34170;54.364;18.582;2023-07-24T10:58:20;4.30;;;1.88;;
48363;SDS011;34170;54.364;18.582;2023-07-24T11:00:51;9.88;;;2.20;;
48363;SDS011;34170;54.364;18.582;2023-07-24T11:03:19;3.92;;;1.95;;
48363;SDS011;34170;54.364;18.582;2023-07-24T11:05:46;5.55;;;2.20;;
48363;SDS011;34170;54.364;18.582;2023-07-24T11:08:18;3.40;;;1.65;;
48363;SDS011;34170;54.364;18.582;2023-07-24T11:10:50;4.65;;;2.10;;
48363;SDS011;34170;54.364;18.582;2023-07-24T11:13:20;5.63;;;2.50;;
48363;SDS011;34170;54.364;18.582;2023-07-24T11:15:52;3.60;;;1.92;;
48363;SDS011;34170;54.364;18.582;2023-07-24T11:18:21;2.75;;;1.90;;
48363;SDS011;34170;54.364;18.582;2023-07-24T11:20:51;3.08;;;2.22;;
48363;SDS011;34170;54.364;18.582;2023-07-24T11:23:20;3.13;;;2.08;;
48363;SDS011;34170;54.364;18.582;2023-07-24T11:25:51;4.28;;;2.30;;
48363;SDS011;34170;54.364;18.582;2023-07-24T11:28:20;3.13;;;2.30;;
48363;SDS011;34170;54.364;18.582;2023-07-24T11:30:47;4.80;;;2.20;;
48363;SDS011;34170;54.364;18.582;2023-07-24T11:33:17;4.97;;;2.00;;
48363;SDS011;34170;54.364;18.582;2023-07-24T11:35:45;3.22;;;2.33;;
48363;SDS011;34170;54.364;18.582;2023-07-24T11:38:13;2.92;;;2.10;;
48363;SDS011;34170;54.364;18.582;2023-07-24T11:40:41;6.65;;;1.80;;
48363;SDS011;34170;54.364;18.582;2023-07-24T11:43:17;3.08;;;2.00;;
48363;SDS011;34170;54.364;18.582;2023-07-24T11:45:46;3.50;;;1.90;;
48363;SDS011;34170;54.364;18.582;2023-07-24T11:48:21;4.60;;;2.47;;
48363;SDS011;34170;54.364;18.582;2023-07-24T11:50:51;2.83;;;2.30;;
48363;SDS011;34170;54.364;18.582;2023-07-24T11:53:26;2.50;;;1.70;;
48363;SDS011;34170;54.364;18.582;2023-07-24T11:55:55;3.05;;;2.20;;
48363;SDS011;34170;54.364;18.582;2023-07-24T11:58:27;5.72;;;2.15;;
48363;SDS011;34170;54.364;18.582;2023-07-24T12:00:57;4.10;;;1.98;;
48363;SDS011;34170;54.364;18.582;2023-07-24T12:03:26;4.05;;;2.03;;
48363;SDS011;34170;54.364;18.582;2023-07-24T12:05:55;6.38;;;2.90;;
48363;SDS011;34170;54.364;18.582;2023-07-24T12:08:30;3.80;;;2.13;;
48363;SDS011;34170;54.364;18.582;2023-07-24T12:10:59;5.03;;;2.50;;
48363;SDS011;34170;54.364;18.582;2023-07-24T12:13:27;4.82;;;2.30;;
48363;SDS011;34170;54.364;18.582;2023-07-24T12:15:56;3.28;;;1.70;;
48363;SDS011;34170;54.364;18.582;2023-07-24T12:18:24;2.90;;;2.10;;
48363;SDS011;34170;54.364;18.582;2023-07-24T12:20:51;3.95;;;2.42;;
48363;SDS011;34170;54.364;18.582;2023-07-24T12:23:19;5.25;;;2.97;;
48363;SDS011;34170;54.364;18.582;2023-07-24T12:25:47;3.65;;;2.40;;
48363;SDS011;34170;54.364;18.582;2023-07-24T12:28:14;8.80;;;2.65;;
48363;SDS011;34170;54.364;18.582;2023-07-24T12:30:42;4.80;;;2.75;;
48363;SDS011;34170;54.364;18.582;2023-07-24T12:33:10;4.85;;;2.30;;
48363;SDS011;34170;54.364;18.582;2023-07-24T12:35:37;4.75;;;2.45;;
48363;SDS011;34170;54.364;18.582;2023-07-24T12:38:04;3.97;;;2.50;;
48363;SDS011;34170;54.364;18.582;2023-07-24T12:40:32;2.50;;;1.88;;
48363;SDS011;34170;54.364;18.582;2023-07-24T12:42:59;6.53;;;2.50;;
48363;SDS011;34170;54.364;18.582;2023-07-24T12:45:27;3.13;;;2.10;;
48363;SDS011;34170;54.364;18.582;2023-07-24T12:47:54;3.70;;;1.90;;
48363;SDS011;34170;54.364;18.582;2023-07-24T12:50:22;3.17;;;1.92;;
48363;SDS011;34170;54.364;18.582;2023-07-24T12:52:50;1.80;;;1.60;;
48363;SDS011;34170;54.364;18.582;2023-07-24T12:55:18;4.80;;;1.52;;
48363;SDS011;34170;54.364;18.582;2023-07-24T12:57:45;2.10;;;1.70;;
48363;SDS011;34170;54.364;18.582;2023-07-24T13:00:13;2.55;;;1.35;;
48363;SDS011;34170;54.364;18.582;2023-07-24T13:02:40;2.78;;;1.50;;
48363;SDS011;34170;54.364;18.582;2023-07-24T13:05:08;3.42;;;1.42;;
48363;SDS011;34170;54.364;18.582;2023-07-24T13:07:36;2.33;;;1.20;;
48363;SDS011;34170;54.364;18.582;2023-07-24T13:10:03;2.05;;;1.60;;
48363;SDS011;34170;54.364;18.582;2023-07-24T13:12:32;2.17;;;1.45;;
48363;SDS011;34170;54.364;18.582;2023-07-24T13:14:59;2.55;;;1.65;;
48363;SDS011;34170;54.364;18.582;2023-07-24T13:17:27;2.83;;;1.60;;
48363;SDS011;34170;54.364;18.582;2023-07-24T13:19:55;1.70;;;1.20;;
48363;SDS011;34170;54.364;18.582;2023-07-24T13:22:23;2.10;;;1.60;;
48363;SDS011;34170;54.364;18.582;2023-07-24T13:24:50;1.90;;;1.33;;
48363;SDS011;34170;54.364;18.582;2023-07-24T13:27:18;1.75;;;1.48;;
48363;SDS011;34170;54.364;18.582;2023-07-24T13:29:45;2.83;;;1.63;;
48363;SDS011;34170;54.364;18.582;2023-07-24T13:32:13;2.05;;;1.48;;
48363;SDS011;34170;54.364;18.582;2023-07-24T13:34:40;2.70;;;1.52;;
48363;SDS011;34170;54.364;18.582;2023-07-24T13:37:08;1.63;;;1.33;;
48363;SDS011;34170;54.364;18.582;2023-07-24T13:39:35;2.15;;;1.27;;
48363;SDS011;34170;54.364;18.582;2023-07-24T13:42:03;2.53;;;1.40;;
48363;SDS011;34170;54.364;18.582;2023-07-24T13:44:30;2.33;;;1.48;;
48363;SDS011;34170;54.364;18.582;2023-07-24T13:46:58;3.28;;;1.48;;
48363;SDS011;34170;54.364;18.582;2023-07-24T13:49:25;3.33;;;1.63;;
48363;SDS011;34170;54.364;18.582;2023-07-24T13:51:53;3.00;;;1.70;;
48363;SDS011;34170;54.364;18.582;2023-07-24T13:54:20;2.90;;;1.65;;
48363;SDS011;34170;54.364;18.582;2023-07-24T13:56:48;1.95;;;1.45;;
48363;SDS011;34170;54.364;18.582;2023-07-24T13:59:15;2.63;;;2.13;;
48363;SDS011;34170;54.364;18.582;2023-07-24T14:01:43;1.73;;;1.38;;
48363;SDS011;34170;54.364;18.582;2023-07-24T14:04:11;3.60;;;1.60;;
48363;SDS011;34170;54.364;18.582;2023-07-24T14:06:39;3.45;;;1.60;;
48363;SDS011;34170;54.364;18.582;2023-07-24T14:09:07;3.83;;;1.52;;
48363;SDS011;34170;54.364;18.582;2023-07-24T14:11:34;4.07;;;2.17;;
48363;SDS011;34170;54.364;18.582;2023-07-24T14:14:02;1.52;;;1.42;;
48363;SDS011;34170;54.364;18.582;2023-07-24T14:16:29;1.75;;;1.35;;
48363;SDS011;34170;54.364;18.582;2023-07-24T14:18:57;1.65;;;1.38;;
48363;SDS011;34170;54.364;18.582;2023-07-24T14:21:24;1.70;;;1.33;;
48363;SDS011;34170;54.364;18.582;2023-07-24T14:23:52;3.20;;;1.10;;
48363;SDS011;34170;54.364;18.582;2023-07-24T14:26:19;2.60;;;1.63;;
48363;SDS011;34170;54.364;18.582;2023-07-24T14:28:46;2.35;;;1.30;;
48363;SDS011;34170;54.364;18.582;2023-07-24T14:31:14;2.15;;;1.50;;
48363;SDS011;34170;54.364;18.582;2023-07-24T14:33:41;2.70;;;1.38;;
48363;SDS011;34170;54.364;18.582;2023-07-24T14:36:09;2.53;;;1.55;;
48363;SDS011;34170;54.364;18.582;2023-07-24T14:38:36;2.00;;;1.33;;
48363;SDS011;34170;54.364;18.582;2023-07-24T14:41:04;1.92;;;1.40;;
48363;SDS011;34170;54.364;18.582;2023-07-24T14:43:31;1.70;;;1.10;;
48363;SDS011;34170;54.364;18.582;2023-07-24T14:45:59;4.10;;;1.33;;
48363;SDS011;34170;54.364;18.582;2023-07-24T14:48:26;1.67;;;1.20;;
48363;SDS011;34170;54.364;18.582;2023-07-24T14:50:54;1.52;;;1.25;;